createdAt,value
2018-11-13T00:00:28.235Z,68.93
2018-11-13T00:02:56.458Z,69.40
2018-11-13T00:05:24.565Z,69.53
2018-11-13T00:07:52.374Z,68.76
2018-11-13T00:10:19.978Z,68.72
2018-11-13T00:12:47.605Z,69.34
2018-11-13T00:15:15.179Z,68.78
2018-11-13T00:17:42.809Z,68.82
2018-11-13T00:20:12.502Z,69.85
2018-11-13T00:22:40.265Z,70.53
2018-11-13T00:25:09.986Z,70.43
2018-11-13T00:27:38.040Z,70.31
2018-11-13T00:30:08.690Z,69.87
2018-11-13T00:32:36.288Z,70.01
2018-11-13T00:35:03.965Z,70.37
2018-11-13T00:37:31.578Z,70.59
2018-11-13T00:39:59.186Z,70.73
2018-11-13T00:42:26.808Z,70.89
2018-11-13T00:44:54.495Z,71.24
2018-11-13T00:47:22.066Z,71.23
2018-11-13T00:49:49.579Z,71.72
2018-11-13T00:52:17.211Z,71.30
2018-11-13T00:54:44.851Z,71.55
2018-11-13T00:57:12.393Z,71.90
2018-11-13T00:59:39.996Z,71.74
2018-11-13T01:02:08.085Z,72.22
2018-11-13T01:04:35.304Z,72.23
2018-11-13T01:07:02.962Z,73.00
2018-11-13T01:09:30.728Z,72.67
2018-11-13T01:11:58.806Z,72.45
2018-11-13T01:14:26.190Z,71.76
2018-11-13T01:16:53.852Z,72.41
2018-11-13T01:19:21.648Z,72.68
2018-11-13T01:21:49.282Z,71.89
2018-11-13T01:24:17.231Z,71.91
2018-11-13T01:26:44.583Z,72.46
2018-11-13T01:29:12.312Z,72.82
2018-11-13T01:31:39.913Z,72.83
2018-11-13T01:34:07.856Z,72.59
2018-11-13T01:36:35.512Z,72.34
2018-11-13T01:39:04.836Z,72.96
2018-11-13T01:41:32.504Z,72.51
2018-11-13T01:44:00.100Z,72.82
2018-11-13T01:46:28.144Z,72.96
2018-11-13T01:48:56.016Z,73.11
2018-11-13T01:51:23.387Z,72.58
2018-11-13T01:53:50.987Z,72.94
2018-11-13T01:56:18.614Z,72.95
2018-11-13T01:58:46.277Z,72.58
2018-11-13T02:01:13.949Z,72.66
2018-11-13T02:03:41.549Z,72.38
2018-11-13T02:06:09.121Z,72.03
2018-11-13T02:08:36.795Z,72.30
2018-11-13T02:11:04.769Z,72.22
2018-11-13T02:13:32.384Z,72.77
2018-11-13T02:16:00.006Z,73.01
2018-11-13T02:18:27.618Z,72.59
2018-11-13T02:20:55.252Z,72.68
2018-11-13T02:23:22.939Z,72.53
2018-11-13T02:25:50.567Z,72.45
2018-11-13T02:28:18.281Z,73.05
2018-11-13T02:30:45.961Z,72.76
2018-11-13T02:33:14.019Z,72.98
2018-11-13T02:35:41.642Z,72.76
2018-11-13T02:38:09.321Z,73.37
2018-11-13T02:40:36.944Z,72.86
2018-11-13T02:43:04.784Z,72.56
2018-11-13T02:45:32.340Z,73.62
2018-11-13T02:47:59.931Z,73.05
2018-11-13T02:50:27.972Z,73.37
2018-11-13T02:52:55.580Z,73.01
2018-11-13T02:55:23.160Z,72.90
2018-11-13T02:57:50.775Z,72.34
2018-11-13T03:00:19.711Z,71.57
2018-11-13T03:02:47.372Z,71.42
2018-11-13T03:05:16.128Z,71.80
2018-11-13T03:07:43.746Z,72.05
2018-11-13T03:10:12.924Z,71.17
2018-11-13T03:12:40.671Z,71.37
2018-11-13T03:15:10.499Z,71.00
2018-11-13T03:17:38.161Z,71.13
2018-11-13T03:20:08.856Z,70.86
2018-11-13T03:22:36.476Z,70.42
2018-11-13T03:25:06.982Z,70.50
2018-11-13T03:27:34.604Z,70.86
2018-11-13T03:30:02.753Z,71.19
2018-11-13T03:32:30.325Z,71.09
2018-11-13T03:34:57.970Z,70.59
2018-11-13T03:37:25.719Z,70.79
2018-11-13T03:39:53.305Z,70.92
2018-11-13T03:42:20.960Z,70.52
2018-11-13T03:44:48.584Z,70.63
2018-11-13T03:47:16.205Z,70.37
2018-11-13T03:49:43.854Z,70.04
2018-11-13T03:52:11.536Z,69.78
2018-11-13T03:54:39.151Z,69.86
2018-11-13T03:57:06.813Z,69.74
2018-11-13T03:59:34.436Z,69.94
2018-11-13T04:02:02.037Z,70.09
2018-11-13T04:04:29.638Z,70.10
2018-11-13T04:06:57.291Z,70.17
2018-11-13T04:09:24.934Z,69.93
2018-11-13T04:11:52.561Z,69.69
2018-11-13T04:14:20.136Z,69.25
2018-11-13T04:16:47.929Z,69.68
2018-11-13T04:19:15.645Z,70.14
2018-11-13T04:21:48.571Z,70.45
2018-11-13T04:24:16.337Z,70.15
2018-11-13T04:26:44.100Z,69.96
2018-11-13T04:29:11.862Z,70.50
2018-11-13T04:31:39.639Z,70.21
2018-11-13T04:34:07.332Z,70.24
2018-11-13T04:36:35.116Z,70.04
2018-11-13T04:39:03.759Z,69.46
2018-11-13T04:41:31.450Z,70.07
2018-11-13T04:43:59.109Z,70.49
2018-11-13T04:46:26.826Z,69.99
2018-11-13T04:48:54.368Z,69.70
2018-11-13T04:51:22.011Z,70.36
2018-11-13T04:53:49.698Z,69.56
2018-11-13T04:56:17.294Z,69.63
2018-11-13T04:58:44.932Z,69.60
2018-11-13T05:01:12.576Z,70.43
2018-11-13T05:03:40.239Z,70.33
2018-11-13T05:06:08.122Z,70.06
2018-11-13T05:08:35.725Z,70.28
2018-11-13T05:11:03.356Z,70.48
2018-11-13T05:13:31.010Z,70.46
2018-11-13T05:15:58.630Z,70.38
2018-11-13T05:18:26.232Z,69.89
2018-11-13T05:20:53.896Z,69.49
2018-11-13T05:23:21.595Z,69.77
2018-11-13T05:25:49.196Z,69.63
2018-11-13T05:28:16.783Z,69.54
2018-11-13T05:30:44.324Z,69.49
2018-11-13T05:33:11.913Z,69.58
2018-11-13T05:35:39.472Z,70.12
2018-11-13T05:38:07.095Z,69.89
2018-11-13T05:40:34.648Z,69.10
2018-11-13T05:43:02.308Z,69.88
2018-11-13T05:45:29.925Z,69.64
2018-11-13T05:47:57.577Z,69.84
2018-11-13T05:50:25.231Z,69.77
2018-11-13T05:52:53.565Z,70.35
2018-11-13T05:55:21.165Z,69.64
2018-11-13T05:57:48.928Z,69.50
2018-11-13T06:00:22.016Z,69.60
2018-11-13T06:02:49.687Z,69.68
2018-11-13T06:05:17.301Z,69.30
2018-11-13T06:07:45.030Z,69.33
2018-11-13T06:10:13.274Z,70.18
2018-11-13T06:12:41.161Z,69.71
2018-11-13T06:15:09.233Z,69.16
2018-11-13T06:17:36.797Z,69.22
2018-11-13T06:20:06.656Z,68.79
2018-11-13T06:22:34.308Z,68.88
2018-11-13T06:25:01.942Z,68.11
2018-11-13T06:27:29.572Z,68.21
2018-11-13T06:29:57.177Z,68.90
2018-11-13T06:32:24.793Z,69.10
2018-11-13T06:34:52.393Z,68.80
2018-11-13T06:37:20.002Z,68.86
2018-11-13T06:39:47.662Z,68.61
2018-11-13T06:42:15.309Z,69.08
2018-11-13T06:44:43.070Z,69.01
2018-11-13T06:47:11.435Z,68.49
2018-11-13T06:49:39.124Z,67.98
2018-11-13T06:52:06.657Z,67.99
2018-11-13T06:55:04.407Z,68.42
2018-11-13T06:57:33.015Z,67.95
2018-11-13T07:00:01.239Z,68.27
2018-11-13T07:02:28.933Z,67.69
2018-11-13T07:04:56.898Z,68.61
2018-11-13T07:07:24.479Z,68.38
2018-11-13T07:09:52.152Z,68.28
2018-11-13T07:12:19.933Z,68.00
2018-11-13T07:14:47.778Z,67.20
2018-11-13T07:17:15.378Z,67.12
2018-11-13T07:19:43.065Z,67.63
2018-11-13T07:22:10.785Z,67.77
2018-11-13T07:24:38.428Z,67.08
2018-11-13T07:27:06.100Z,67.75
2018-11-13T07:29:33.723Z,67.29
2018-11-13T07:32:01.518Z,67.01
2018-11-13T07:34:29.326Z,66.47
2018-11-13T07:36:56.878Z,66.42
2018-11-13T07:39:25.273Z,65.53
2018-11-13T07:41:53.050Z,66.00
2018-11-13T07:44:20.682Z,65.59
2018-11-13T07:46:48.416Z,64.51
2018-11-13T07:49:16.026Z,64.09
2018-11-13T07:51:43.567Z,64.37
2018-11-13T07:54:11.111Z,63.98
2018-11-13T07:56:40.746Z,62.35
2018-11-13T07:59:08.263Z,62.52
2018-11-13T08:01:35.817Z,63.48
2018-11-13T08:04:03.741Z,62.86
2018-11-13T08:06:31.425Z,62.91
2018-11-13T08:08:59.087Z,62.42
2018-11-13T08:11:26.707Z,62.34
2018-11-13T08:13:54.277Z,61.80
2018-11-13T08:16:21.951Z,61.16
2018-11-13T08:18:49.681Z,61.25
2018-11-13T08:21:17.297Z,61.03
2018-11-13T08:23:44.913Z,60.53
2018-11-13T08:26:12.618Z,61.25
2018-11-13T08:28:40.236Z,61.06
2018-11-13T08:31:07.797Z,61.11
2018-11-13T08:33:35.614Z,61.63
2018-11-13T08:36:03.247Z,61.05
2018-11-13T08:38:30.840Z,59.97
2018-11-13T08:40:58.387Z,58.53
2018-11-13T08:43:26.057Z,58.89
2018-11-13T08:45:53.606Z,58.46
2018-11-13T08:48:21.211Z,59.10
2018-11-13T08:50:48.840Z,59.37
2018-11-13T08:53:16.370Z,59.59
2018-11-13T08:55:43.968Z,60.33
2018-11-13T08:58:11.584Z,60.96
2018-11-13T09:00:39.161Z,60.52
2018-11-13T09:03:06.773Z,61.15
2018-11-13T09:05:34.441Z,60.65
2018-11-13T09:08:02.185Z,61.33
2018-11-13T09:10:29.876Z,60.79
2018-11-13T09:12:57.568Z,61.27
2018-11-13T09:15:25.233Z,61.39
2018-11-13T09:17:52.866Z,61.16
2018-11-13T09:20:20.923Z,62.01
2018-11-13T09:22:48.661Z,62.79
2018-11-13T09:25:18.333Z,62.10
2018-11-13T09:27:45.907Z,62.02
2018-11-13T09:30:16.512Z,61.45
2018-11-13T09:32:44.679Z,62.30
2018-11-13T09:35:13.725Z,63.16
2018-11-13T09:37:41.808Z,63.24
2018-11-13T09:40:12.721Z,66.17
2018-11-13T09:42:41.023Z,67.75
2018-11-13T09:45:09.317Z,68.32
2018-11-13T09:47:37.176Z,69.29
2018-11-13T09:50:08.053Z,70.03
2018-11-13T09:52:35.853Z,69.87
2018-11-13T09:55:05.261Z,69.15
2018-11-13T09:57:32.929Z,68.97
2018-11-13T10:00:00.538Z,69.06
2018-11-13T10:02:28.994Z,69.06
2018-11-13T10:04:57.482Z,69.23
2018-11-13T10:07:24.413Z,68.90
2018-11-13T10:09:52.097Z,69.39
2018-11-13T10:12:19.716Z,68.84
2018-11-13T10:14:47.369Z,69.93
2018-11-13T10:17:15.011Z,71.03
2018-11-13T10:19:42.645Z,71.24
2018-11-13T10:22:10.267Z,70.84
2018-11-13T10:24:37.843Z,71.01
2018-11-13T10:27:05.537Z,70.80
2018-11-13T10:29:33.135Z,70.04
2018-11-13T10:32:00.723Z,71.06
2018-11-13T10:34:28.433Z,71.19
2018-11-13T10:36:56.047Z,71.79
2018-11-13T10:39:23.661Z,72.52
2018-11-13T10:41:51.862Z,71.91
2018-11-13T10:44:19.438Z,72.52
2018-11-13T10:46:47.026Z,72.70
2018-11-13T10:49:14.692Z,72.09
2018-11-13T10:51:42.294Z,72.53
2018-11-13T10:54:09.817Z,71.80
2018-11-13T10:56:37.498Z,71.08
2018-11-13T10:59:05.244Z,71.88
2018-11-13T11:01:39.043Z,71.97
2018-11-13T11:04:12.286Z,71.17
2018-11-13T11:06:39.891Z,71.57
2018-11-13T11:09:09.250Z,72.49
2018-11-13T11:11:37.414Z,71.13
2018-11-13T11:14:05.501Z,71.40
2018-11-13T11:16:33.021Z,71.17
2018-11-13T11:19:00.773Z,72.12
2018-11-13T11:21:28.299Z,72.00
2018-11-13T11:23:55.947Z,72.40
2018-11-13T11:26:23.618Z,72.28
2018-11-13T11:28:51.218Z,72.66
2018-11-13T11:31:18.845Z,72.65
2018-11-13T11:33:46.429Z,71.80
2018-11-13T11:36:14.072Z,72.48
2018-11-13T11:38:41.861Z,72.08
2018-11-13T11:41:16.342Z,70.23
2018-11-13T11:43:44.047Z,70.33
2018-11-13T11:46:11.655Z,69.72
2018-11-13T11:48:39.322Z,69.12
2018-11-13T11:51:06.906Z,68.40
2018-11-13T11:53:34.533Z,68.41
2018-11-13T11:56:02.190Z,67.56
2018-11-13T11:58:29.789Z,67.17
2018-11-13T12:00:57.388Z,67.95
2018-11-13T12:03:25.683Z,67.57
2018-11-13T12:05:53.871Z,68.00
2018-11-13T12:08:22.791Z,68.45
2018-11-13T12:10:50.505Z,69.57
2018-11-13T12:13:18.161Z,69.21
2018-11-13T12:15:45.781Z,69.36
2018-11-13T12:18:13.397Z,69.99
2018-11-13T12:20:41.045Z,69.77
2018-11-13T12:23:08.767Z,69.15
2018-11-13T12:25:36.382Z,67.69
2018-11-13T12:28:04.697Z,67.51
2018-11-13T12:30:32.337Z,67.49
2018-11-13T12:32:59.879Z,69.24
2018-11-13T12:35:27.635Z,69.27
2018-11-13T12:37:55.267Z,70.32
2018-11-13T12:40:23.914Z,71.32
2018-11-13T12:42:51.677Z,71.45
2018-11-13T12:45:19.767Z,72.45
2018-11-13T12:47:47.514Z,73.13
2018-11-13T12:50:16.316Z,74.58
2018-11-13T12:52:43.939Z,73.77
2018-11-13T12:55:17.923Z,73.93
2018-11-13T12:57:45.770Z,73.58
2018-11-13T13:00:17.990Z,73.17
2018-11-13T13:02:45.654Z,71.66
2018-11-13T13:05:13.354Z,73.02
2018-11-13T13:07:42.334Z,72.06
2018-11-13T13:10:12.132Z,70.59
2018-11-13T13:12:39.854Z,71.90
2018-11-13T13:15:10.482Z,71.65
2018-11-13T13:17:38.419Z,70.26
2018-11-13T13:20:10.967Z,71.53
2018-11-13T13:22:38.964Z,71.69
2018-11-13T13:25:10.319Z,72.74
2018-11-13T13:27:38.155Z,72.97
2018-11-13T13:30:09.250Z,73.08
2018-11-13T13:32:37.017Z,75.07
2018-11-13T13:35:51.749Z,75.69
2018-11-13T13:38:19.399Z,77.31
2018-11-13T13:40:48.336Z,80.24
2018-11-13T13:43:16.375Z,79.77
2018-11-13T13:45:44.858Z,78.92
2018-11-13T13:48:12.519Z,78.41
2018-11-13T13:50:40.149Z,77.42
2018-11-13T13:53:09.159Z,77.83
2018-11-13T13:55:36.835Z,76.91
2018-11-13T13:58:05.048Z,76.87
2018-11-13T14:00:32.767Z,77.02
2018-11-13T14:03:01.692Z,76.59
2018-11-13T14:05:29.301Z,76.92
2018-11-13T14:07:56.921Z,76.17
2018-11-13T14:10:24.560Z,75.58
2018-11-13T14:12:52.213Z,75.17
2018-11-13T14:15:20.829Z,75.17
2018-11-13T14:17:48.424Z,74.25
2018-11-13T14:20:17.337Z,73.68
2018-11-13T14:22:45.149Z,72.76
2018-11-13T14:25:13.474Z,73.73
2018-11-13T14:27:41.128Z,73.54
2018-11-13T14:30:28.068Z,73.48
2018-11-13T14:32:57.186Z,74.73
2018-11-13T14:35:24.818Z,73.87
2018-11-13T14:37:52.572Z,74.39
2018-11-13T14:40:25.342Z,74.33
2018-11-13T14:42:52.920Z,74.67
2018-11-13T14:45:21.512Z,74.69
2018-11-13T14:47:49.794Z,74.12
2018-11-13T14:50:18.974Z,74.36
2018-11-13T14:52:47.161Z,74.54
2018-11-13T14:55:20.779Z,74.82
2018-11-13T14:57:48.721Z,74.47
2018-11-13T15:00:20.908Z,74.12
2018-11-13T15:02:49.251Z,73.48
2018-11-13T15:05:18.084Z,73.50
2018-11-13T15:07:46.914Z,73.13
2018-11-13T15:10:23.481Z,72.63
2018-11-13T15:12:51.252Z,72.93
2018-11-13T15:15:19.891Z,72.64
2018-11-13T15:17:47.481Z,72.66
2018-11-13T15:20:15.729Z,72.31
2018-11-13T15:22:44.069Z,73.07
2018-11-13T15:25:14.126Z,72.42
2018-11-13T15:27:42.627Z,73.55
2018-11-13T15:30:20.222Z,73.75
2018-11-13T15:32:53.710Z,74.34
2018-11-13T15:35:21.374Z,74.47
2018-11-13T15:37:49.034Z,74.25
2018-11-13T15:40:19.362Z,73.93
2018-11-13T15:42:47.050Z,73.92
2018-11-13T15:45:15.905Z,73.71
2018-11-13T15:47:44.905Z,74.08
2018-11-13T15:50:16.575Z,74.00
2018-11-13T15:52:44.679Z,74.14
2018-11-13T15:55:13.194Z,73.97
2018-11-13T15:57:41.603Z,74.29
2018-11-13T16:00:14.810Z,74.10
2018-11-13T16:02:42.864Z,73.70
2018-11-13T16:05:46.792Z,73.05
2018-11-13T16:08:14.433Z,73.74
2018-11-13T16:10:42.120Z,73.35
2018-11-13T16:13:09.859Z,73.13
2018-11-13T16:15:37.791Z,72.83
2018-11-13T16:18:09.850Z,73.31
2018-11-13T16:20:37.638Z,73.62
2018-11-13T16:23:05.832Z,73.56
2018-11-13T16:25:33.473Z,74.04
2018-11-13T16:28:01.256Z,74.14
2018-11-13T16:30:32.274Z,74.21
2018-11-13T16:33:00.077Z,73.64
2018-11-13T16:35:28.582Z,73.79
2018-11-13T16:37:57.368Z,74.18
2018-11-13T16:40:26.154Z,74.29
2018-11-13T16:42:54.368Z,73.60
2018-11-13T16:45:22.977Z,73.65
2018-11-13T16:47:51.042Z,74.15
2018-11-13T16:50:27.629Z,73.93
2018-11-13T16:52:55.509Z,73.92
2018-11-13T16:55:28.914Z,73.90
2018-11-13T16:57:57.443Z,74.21
2018-11-13T17:00:25.284Z,73.18
2018-11-13T17:02:52.990Z,73.81
2018-11-13T17:05:21.619Z,73.64
2018-11-13T17:07:49.400Z,73.23
2018-11-13T17:10:18.217Z,73.28
2018-11-13T17:12:46.110Z,73.53
2018-11-13T17:15:20.230Z,73.29
2018-11-13T17:17:48.917Z,73.34
2018-11-13T17:20:16.746Z,72.92
2018-11-13T17:22:44.916Z,73.27
2018-11-13T17:25:13.972Z,73.20
2018-11-13T17:27:42.753Z,72.67
2018-11-13T17:30:14.600Z,72.69
2018-11-13T17:32:42.804Z,72.28
2018-11-13T17:35:11.895Z,72.49
2018-11-13T17:37:39.939Z,72.04
2018-11-13T17:40:10.745Z,72.26
2018-11-13T17:42:39.097Z,71.84
2018-11-13T17:45:10.647Z,72.05
2018-11-13T17:47:38.373Z,72.26
2018-11-13T17:50:12.550Z,71.64
2018-11-13T17:52:40.363Z,71.21
2018-11-13T17:55:08.667Z,71.78
2018-11-13T17:57:36.306Z,71.60
2018-11-13T18:00:17.546Z,71.68
2018-11-13T18:02:46.368Z,71.22
2018-11-13T18:05:14.359Z,71.70
2018-11-13T18:07:42.554Z,71.47
2018-11-13T18:10:10.089Z,71.66
2018-11-13T18:12:38.318Z,71.66
2018-11-13T18:15:09.271Z,71.06
2018-11-13T18:17:37.401Z,71.16
2018-11-13T18:20:08.455Z,71.63
2018-11-13T18:22:36.275Z,70.60
2018-11-13T18:25:04.627Z,70.98
2018-11-13T18:27:32.338Z,70.73
2018-11-13T18:30:00.078Z,70.92
2018-11-13T18:32:27.838Z,70.11
2018-11-13T18:34:55.623Z,70.01
2018-11-13T18:37:23.365Z,70.17
2018-11-13T18:39:51.012Z,69.61
2018-11-13T18:42:18.749Z,69.78
2018-11-13T18:44:46.428Z,68.50
2018-11-13T18:47:14.206Z,68.64
2018-11-13T18:49:41.900Z,67.73
2018-11-13T18:52:09.587Z,67.56
2018-11-13T18:54:37.335Z,67.93
2018-11-13T18:57:05.358Z,67.18
2018-11-13T18:59:33.553Z,67.28
2018-11-13T19:02:00.923Z,68.92
2018-11-13T19:04:28.557Z,68.82
2018-11-13T19:06:56.187Z,70.97
2018-11-13T19:09:23.909Z,71.07
2018-11-13T19:11:51.685Z,70.50
2018-11-13T19:14:19.344Z,71.57
2018-11-13T19:16:47.015Z,70.82
2018-11-13T19:19:14.785Z,71.31
2018-11-13T19:21:42.597Z,69.84
2018-11-13T19:24:10.313Z,70.32
2018-11-13T19:26:37.991Z,70.01
2018-11-13T19:29:05.787Z,70.14
2018-11-13T19:31:33.951Z,68.06
2018-11-13T19:34:01.293Z,66.60
2018-11-13T19:36:29.233Z,66.09
2018-11-13T19:38:56.888Z,65.57
2018-11-13T19:41:24.617Z,66.24
2018-11-13T19:43:53.429Z,66.53
2018-11-13T19:46:21.098Z,67.04
2018-11-13T19:48:48.756Z,67.02
2018-11-13T19:51:49.664Z,67.99
2018-11-13T19:54:20.393Z,68.65
2018-11-13T19:56:48.098Z,69.13
2018-11-13T19:59:15.833Z,69.37
2018-11-13T20:01:43.560Z,69.73
2018-11-13T20:04:11.337Z,70.17
2018-11-13T20:06:39.055Z,70.49
2018-11-13T20:09:07.478Z,70.48
2018-11-13T20:11:35.129Z,70.94
2018-11-13T20:14:02.905Z,71.13
2018-11-13T20:16:30.525Z,71.44
2018-11-13T20:18:58.132Z,71.92
2018-11-13T20:21:25.852Z,71.72
2018-11-13T20:23:53.855Z,72.62
2018-11-13T20:26:21.544Z,72.36
2018-11-13T20:28:49.294Z,72.59
2018-11-13T20:31:17.140Z,73.43
2018-11-13T20:33:44.820Z,73.64
2018-11-13T20:36:12.582Z,73.48
2018-11-13T20:38:40.414Z,73.95
2018-11-13T20:41:08.172Z,74.71
2018-11-13T20:43:35.944Z,74.95
2018-11-13T20:46:03.881Z,75.01
2018-11-13T20:48:31.632Z,75.02
2018-11-13T20:50:59.346Z,75.33
2018-11-13T20:53:27.050Z,75.51
2018-11-13T20:55:55.006Z,75.31
2018-11-13T20:58:22.784Z,75.18
2018-11-13T21:00:50.900Z,75.05
2018-11-13T21:03:18.785Z,75.16
2018-11-13T21:05:46.543Z,74.49
2018-11-13T21:08:14.433Z,73.82
2018-11-13T21:10:42.101Z,73.54
2018-11-13T21:13:09.986Z,73.70
2018-11-13T21:15:37.654Z,73.25
2018-11-13T21:18:05.765Z,73.51
2018-11-13T21:20:33.587Z,72.58
2018-11-13T21:23:01.324Z,72.52
2018-11-13T21:25:28.955Z,73.00
2018-11-13T21:27:58.896Z,72.51
2018-11-13T21:30:26.639Z,71.94
2018-11-13T21:32:54.431Z,72.12
2018-11-13T21:35:22.188Z,72.57
2018-11-13T21:37:51.226Z,72.30
2018-11-13T21:40:20.194Z,72.02
2018-11-13T21:42:48.662Z,72.05
2018-11-13T21:45:17.164Z,72.49
2018-11-13T21:47:44.913Z,72.31
2018-11-13T21:50:14.494Z,72.34
2018-11-13T21:52:42.339Z,72.48
2018-11-13T21:55:13.347Z,72.44
2018-11-13T21:57:41.150Z,72.17
2018-11-13T22:00:29.957Z,72.31
2018-11-13T22:03:02.271Z,71.74
2018-11-13T22:05:30.620Z,71.96
2018-11-13T22:07:58.405Z,72.20
2018-11-13T22:10:26.152Z,71.74
2018-11-13T22:12:54.253Z,71.16
2018-11-13T22:15:23.095Z,70.91
2018-11-13T22:17:50.544Z,71.01
2018-11-13T22:20:19.120Z,70.97
2018-11-13T22:22:47.947Z,70.95
2018-11-13T22:25:18.746Z,70.46
2018-11-13T22:27:47.891Z,70.84
2018-11-13T22:30:16.535Z,71.21
2018-11-13T22:32:44.573Z,70.74
2018-11-13T22:35:13.013Z,71.02
2018-11-13T22:37:40.715Z,71.47
2018-11-13T22:40:11.764Z,70.77
2018-11-13T22:42:39.465Z,71.10
2018-11-13T22:45:10.320Z,71.44
2018-11-13T22:47:38.560Z,70.72
2018-11-13T22:50:10.232Z,71.02
2018-11-13T22:52:38.397Z,71.90
2018-11-13T22:55:08.005Z,71.01
2018-11-13T22:57:35.658Z,71.26
2018-11-13T23:00:07.106Z,71.02
2018-11-13T23:02:34.791Z,71.11
2018-11-13T23:05:02.533Z,71.71
2018-11-13T23:07:30.211Z,71.50
2018-11-13T23:09:57.895Z,71.36
2018-11-13T23:12:25.543Z,71.19
2018-11-13T23:14:53.200Z,71.67
2018-11-13T23:17:20.897Z,71.48
2018-11-13T23:19:48.567Z,70.72
2018-11-13T23:22:16.148Z,70.89
2018-11-13T23:24:43.763Z,70.66
2018-11-13T23:27:11.351Z,71.06
2018-11-13T23:29:38.953Z,71.24
2018-11-13T23:32:06.592Z,71.24
2018-11-13T23:34:34.270Z,71.43
2018-11-13T23:37:01.940Z,71.38
2018-11-13T23:39:29.581Z,71.23
2018-11-13T23:41:57.267Z,71.43
2018-11-13T23:44:24.903Z,71.68
2018-11-13T23:46:52.498Z,72.05
2018-11-13T23:49:20.121Z,71.92
2018-11-13T23:51:47.699Z,71.67
2018-11-13T23:54:15.305Z,71.19
2018-11-13T23:56:42.906Z,71.76
2018-11-13T23:59:10.560Z,71.56
